createdAt,value
2018-07-13T00:02:17.159Z,71.54
2018-07-13T00:04:46.973Z,71.98
2018-07-13T00:07:16.934Z,72.72
2018-07-13T00:09:46.774Z,71.50
2018-07-13T00:12:16.642Z,71.82
2018-07-13T00:15:19.042Z,72.64
2018-07-13T00:17:49.031Z,72.22
2018-07-13T00:20:19.174Z,72.74
2018-07-13T00:22:48.903Z,72.29
2018-07-13T00:25:18.718Z,71.19
2018-07-13T00:27:48.387Z,69.50
2018-07-13T00:30:18.222Z,69.21
2018-07-13T00:32:48.266Z,69.38
2018-07-13T00:35:18.003Z,71.01
2018-07-13T00:37:47.911Z,70.66
2018-07-13T00:40:17.695Z,69.85
2018-07-13T00:42:47.498Z,71.49
2018-07-13T00:45:17.236Z,70.71
2018-07-13T00:47:46.906Z,70.80
2018-07-13T00:50:17.267Z,71.49
2018-07-13T00:52:47.319Z,71.80
2018-07-13T00:55:17.144Z,73.70
2018-07-13T00:57:47.002Z,72.49
2018-07-13T01:00:17.223Z,71.39
2018-07-13T01:02:46.854Z,70.50
2018-07-13T01:05:16.723Z,70.67
2018-07-13T01:07:46.691Z,69.99
2018-07-13T01:10:16.405Z,70.73
2018-07-13T01:12:46.238Z,71.92
2018-07-13T01:15:16.090Z,72.37
2018-07-13T01:17:45.970Z,71.54
2018-07-13T01:20:15.665Z,73.12
2018-07-13T01:22:45.360Z,74.11
2018-07-13T01:25:15.246Z,74.50
2018-07-13T01:27:45.442Z,74.00
2018-07-13T01:30:15.161Z,71.51
2018-07-13T01:32:44.792Z,69.54
2018-07-13T01:35:14.882Z,69.97
2018-07-13T01:37:44.810Z,70.89
2018-07-13T01:40:14.514Z,72.42
2018-07-13T01:42:44.330Z,70.73
2018-07-13T01:45:14.039Z,70.44
2018-07-13T01:47:44.899Z,72.12
2018-07-13T01:50:14.858Z,74.10
2018-07-13T01:52:44.802Z,74.12
2018-07-13T01:55:14.660Z,72.72
2018-07-13T01:57:44.606Z,72.22
2018-07-13T02:00:14.314Z,70.94
2018-07-13T02:02:43.994Z,71.77
2018-07-13T02:05:13.658Z,72.28
2018-07-13T02:07:43.479Z,72.13
2018-07-13T02:10:13.210Z,73.04
2018-07-13T02:12:43.150Z,72.11
2018-07-13T02:15:12.827Z,72.76
2018-07-13T02:17:42.565Z,73.36
2018-07-13T02:20:12.486Z,73.94
2018-07-13T02:22:42.234Z,73.44
2018-07-13T02:25:11.937Z,72.32
2018-07-13T02:27:42.170Z,69.83
2018-07-13T02:30:12.018Z,70.51
2018-07-13T02:32:41.998Z,69.59
2018-07-13T02:35:11.715Z,72.76
2018-07-13T02:37:41.407Z,74.91
2018-07-13T02:40:11.273Z,75.45
2018-07-13T02:42:41.154Z,75.46
2018-07-13T02:45:11.052Z,74.66
2018-07-13T02:47:40.892Z,73.98
2018-07-13T02:50:10.606Z,73.20
2018-07-13T02:52:40.320Z,71.63
2018-07-13T02:55:10.016Z,72.17
2018-07-13T02:57:39.942Z,72.83
2018-07-13T03:00:09.862Z,73.63
2018-07-13T03:02:39.816Z,74.21
2018-07-13T03:05:09.739Z,72.98
2018-07-13T03:07:39.676Z,71.81
2018-07-13T03:10:09.398Z,71.38
2018-07-13T03:12:39.275Z,71.87
2018-07-13T03:15:09.063Z,71.93
2018-07-13T03:17:38.778Z,70.88
2018-07-13T03:20:08.650Z,73.08
2018-07-13T03:22:38.424Z,72.45
2018-07-13T03:25:08.466Z,72.33
2018-07-13T03:27:38.225Z,71.99
2018-07-13T03:30:07.906Z,72.72
2018-07-13T03:32:37.834Z,73.68
2018-07-13T03:35:07.680Z,75.04
2018-07-13T03:37:37.382Z,75.13
2018-07-13T03:40:07.300Z,74.74
2018-07-13T03:42:37.142Z,75.41
2018-07-13T03:45:06.982Z,76.61
2018-07-13T03:47:36.698Z,74.03
2018-07-13T03:50:06.818Z,72.35
2018-07-13T03:52:36.514Z,71.14
2018-07-13T03:55:06.646Z,69.79
2018-07-13T03:57:36.583Z,70.50
2018-07-13T04:00:06.471Z,74.18
2018-07-13T04:02:36.434Z,75.17
2018-07-13T04:05:06.404Z,74.74
2018-07-13T04:07:36.095Z,73.51
2018-07-13T04:10:06.141Z,72.67
2018-07-13T04:12:35.834Z,74.94
2018-07-13T04:15:06.057Z,72.10
2018-07-13T04:17:35.979Z,71.14
2018-07-13T04:20:05.810Z,71.26
2018-07-13T04:22:35.774Z,71.93
2018-07-13T04:25:05.716Z,71.22
2018-07-13T04:27:36.967Z,71.83
2018-07-13T04:30:07.312Z,71.34
2018-07-13T04:32:37.201Z,75.69
2018-07-13T04:35:06.965Z,75.00
2018-07-13T04:37:36.719Z,75.57
2018-07-13T04:40:06.475Z,76.63
2018-07-13T04:42:36.424Z,78.82
2018-07-13T04:45:06.356Z,75.45
2018-07-13T04:47:36.091Z,73.28
2018-07-13T04:50:05.936Z,71.98
2018-07-13T04:52:35.842Z,70.61
2018-07-13T04:55:05.766Z,71.08
2018-07-13T04:57:35.671Z,70.64
2018-07-13T05:00:06.012Z,71.76
2018-07-13T05:02:35.900Z,73.49
2018-07-13T05:05:06.282Z,72.45
2018-07-13T05:07:36.196Z,71.47
2018-07-13T05:10:06.357Z,71.91
2018-07-13T05:12:36.172Z,72.59
2018-07-13T05:15:07.088Z,71.96
2018-07-13T05:17:36.730Z,73.08
2018-07-13T05:20:06.753Z,73.37
2018-07-13T05:22:37.199Z,72.43
2018-07-13T05:25:08.109Z,73.08
2018-07-13T05:27:37.808Z,76.19
2018-07-13T05:30:08.177Z,75.35
2018-07-13T05:32:39.018Z,76.12
2018-07-13T05:35:08.826Z,77.42
2018-07-13T05:37:38.562Z,80.32
2018-07-13T05:40:08.329Z,79.87
2018-07-13T05:42:38.028Z,79.24
2018-07-13T05:45:07.766Z,80.04
2018-07-13T05:47:37.677Z,79.47
2018-07-13T05:50:07.454Z,78.70
2018-07-13T05:52:38.495Z,80.08
2018-07-13T05:55:08.662Z,80.18
2018-07-13T05:57:39.128Z,80.48
2018-07-13T06:00:08.931Z,79.07
2018-07-13T06:02:38.651Z,78.95
2018-07-13T06:05:08.421Z,77.17
2018-07-13T06:07:38.178Z,76.97
2018-07-13T06:10:07.906Z,77.87
2018-07-13T06:12:37.634Z,79.36
2018-07-13T06:15:07.514Z,79.71
2018-07-13T06:17:37.218Z,78.66
2018-07-13T06:20:09.554Z,77.92
2018-07-13T06:22:39.263Z,79.28
2018-07-13T06:25:09.750Z,77.28
2018-07-13T06:27:39.749Z,75.57
2018-07-13T06:30:09.580Z,77.79
2018-07-13T06:32:39.204Z,78.62
2018-07-13T06:35:08.958Z,77.73
2018-07-13T06:37:39.143Z,78.77
2018-07-13T06:40:08.890Z,79.44
2018-07-13T06:42:38.846Z,77.38
2018-07-13T06:45:08.608Z,77.98
2018-07-13T06:47:38.307Z,76.39
2018-07-13T06:50:08.171Z,76.82
2018-07-13T06:52:37.861Z,76.49
2018-07-13T06:55:07.567Z,75.44
2018-07-13T06:57:53.922Z,75.89
2018-07-13T07:01:00.409Z,76.98
2018-07-13T07:03:31.843Z,76.61
2018-07-13T07:06:10.913Z,77.33
2018-07-13T07:08:51.228Z,76.57
2018-07-13T07:11:21.002Z,75.96
2018-07-13T07:13:50.978Z,75.59
2018-07-13T07:16:20.784Z,75.89
2018-07-13T07:18:50.445Z,75.83
2018-07-13T07:21:20.100Z,75.63
2018-07-13T07:23:49.766Z,75.17
2018-07-13T07:26:19.472Z,74.53
2018-07-13T07:28:49.120Z,73.48
2018-07-13T07:31:18.943Z,72.89
2018-07-13T07:33:48.598Z,71.95
2018-07-13T07:36:18.243Z,71.59
2018-07-13T07:38:47.894Z,69.99
2018-07-13T07:41:17.654Z,69.98
2018-07-13T07:43:47.374Z,69.11
2018-07-13T07:46:17.126Z,69.03
2018-07-13T07:48:46.757Z,68.54
2018-07-13T07:51:16.390Z,68.00
2018-07-13T07:53:46.022Z,66.42
2018-07-13T07:56:15.649Z,67.93
2018-07-13T07:58:45.354Z,67.04
2018-07-13T08:01:15.018Z,67.26
2018-07-13T08:03:44.730Z,65.86
2018-07-13T08:06:14.390Z,65.52
2018-07-13T08:08:44.059Z,66.65
2018-07-13T08:11:13.715Z,66.25
2018-07-13T08:13:43.392Z,66.35
2018-07-13T08:16:13.041Z,64.27
2018-07-13T08:18:42.732Z,63.39
2018-07-13T08:21:12.462Z,63.43
2018-07-13T08:23:43.066Z,62.26
2018-07-13T08:26:13.691Z,62.41
2018-07-13T08:28:45.492Z,63.75
2018-07-13T08:31:15.242Z,61.53
2018-07-13T08:33:44.858Z,61.54
2018-07-13T08:36:14.513Z,61.54
2018-07-13T08:38:44.154Z,62.70
2018-07-13T08:41:13.874Z,63.49
2018-07-13T08:43:43.642Z,63.30
2018-07-13T08:46:13.292Z,58.69
2018-07-13T08:48:43.000Z,58.52
2018-07-13T08:51:12.796Z,59.61
2018-07-13T08:53:42.554Z,60.39
2018-07-13T08:56:12.327Z,61.09
2018-07-13T08:58:41.982Z,61.52
2018-07-13T09:01:11.729Z,60.87
2018-07-13T09:03:41.433Z,60.14
2018-07-13T09:06:11.125Z,59.63
2018-07-13T09:08:40.827Z,58.74
2018-07-13T09:11:10.533Z,57.42
2018-07-13T09:13:40.290Z,58.02
2018-07-13T09:16:10.263Z,57.34
2018-07-13T09:18:40.176Z,57.90
2018-07-13T09:21:09.849Z,57.76
2018-07-13T09:23:39.553Z,58.42
2018-07-13T09:26:09.298Z,58.67
2018-07-13T09:28:39.222Z,56.97
2018-07-13T09:31:08.965Z,57.85
2018-07-13T09:33:38.566Z,57.17
2018-07-13T09:36:08.383Z,56.22
2018-07-13T09:38:38.048Z,57.84
2018-07-13T09:41:07.938Z,57.15
2018-07-13T09:43:37.606Z,57.92
2018-07-13T09:46:07.381Z,56.77
2018-07-13T09:48:36.958Z,57.76
2018-07-13T09:51:06.743Z,56.01
2018-07-13T09:53:36.802Z,56.92
2018-07-13T09:56:06.582Z,56.91
2018-07-13T09:58:37.376Z,57.40
2018-07-13T10:01:12.162Z,57.27
2018-07-13T10:03:41.892Z,54.54
2018-07-13T10:06:11.590Z,51.79
2018-07-13T10:08:41.314Z,53.86
2018-07-13T10:11:11.067Z,53.00
2018-07-13T10:13:40.983Z,54.13
2018-07-13T10:16:10.661Z,53.11
2018-07-13T10:18:40.370Z,50.28
2018-07-13T10:21:10.533Z,51.61
2018-07-13T10:23:41.481Z,52.19
2018-07-13T10:26:18.982Z,52.72
2018-07-13T10:28:48.927Z,51.96
2018-07-13T10:31:18.882Z,52.16
2018-07-13T10:33:48.627Z,52.51
2018-07-13T10:36:19.999Z,51.76
2018-07-13T10:38:49.613Z,49.28
2018-07-13T10:41:19.468Z,49.72
2018-07-13T10:43:49.121Z,51.98
2018-07-13T10:46:18.886Z,50.40
2018-07-13T10:48:48.552Z,50.76
2018-07-13T10:51:18.197Z,49.25
2018-07-13T10:53:47.829Z,49.97
2018-07-13T10:56:17.427Z,51.09
2018-07-13T10:58:47.071Z,50.43
2018-07-13T11:01:16.719Z,49.80
2018-07-13T11:03:46.399Z,49.64
2018-07-13T11:06:17.306Z,50.36
2018-07-13T11:08:46.949Z,50.38
2018-07-13T11:11:16.611Z,48.97
2018-07-13T11:13:46.291Z,49.79
2018-07-13T11:16:15.881Z,47.76
2018-07-13T11:18:45.511Z,48.06
2018-07-13T11:21:15.150Z,47.98
2018-07-13T11:23:44.982Z,48.89
2018-07-13T11:26:14.606Z,48.28
2018-07-13T11:28:44.222Z,46.08
2018-07-13T11:31:13.882Z,47.50
2018-07-13T11:33:43.565Z,48.07
2018-07-13T11:36:13.197Z,45.68
2018-07-13T11:38:42.840Z,45.14
2018-07-13T11:41:12.453Z,45.74
2018-07-13T11:43:42.105Z,46.11
2018-07-13T11:46:11.758Z,46.98
2018-07-13T11:48:41.422Z,45.50
2018-07-13T11:51:11.091Z,46.99
2018-07-13T11:53:40.921Z,45.43
2018-07-13T11:56:10.546Z,44.30
2018-07-13T11:58:40.170Z,45.86
2018-07-13T12:01:09.797Z,46.18
2018-07-13T12:03:39.450Z,45.16
2018-07-13T12:06:09.109Z,44.53
2018-07-13T12:08:38.862Z,43.09
2018-07-13T12:11:08.587Z,42.72
2018-07-13T12:13:38.214Z,43.56
2018-07-13T12:16:07.917Z,43.28
2018-07-13T12:18:37.529Z,44.45
2018-07-13T12:21:07.267Z,43.80
2018-07-13T12:23:37.080Z,43.11
2018-07-13T12:26:10.147Z,41.83
2018-07-13T12:28:39.859Z,42.92
2018-07-13T12:31:09.542Z,40.43
2018-07-13T12:33:39.131Z,42.26
2018-07-13T12:36:08.876Z,41.85
2018-07-13T12:38:38.493Z,41.70
2018-07-13T12:41:08.173Z,40.36
2018-07-13T12:43:37.798Z,42.81
2018-07-13T12:46:07.505Z,41.30
2018-07-13T12:48:37.158Z,41.61
2018-07-13T12:51:07.434Z,39.36
2018-07-13T12:53:37.052Z,40.46
2018-07-13T12:56:06.677Z,41.72
2018-07-13T12:58:36.309Z,41.45
2018-07-13T13:01:05.954Z,43.46
2018-07-13T13:03:35.697Z,41.25
2018-07-13T13:06:05.288Z,42.03
2018-07-13T13:08:34.886Z,40.98
2018-07-13T13:11:04.581Z,41.37
2018-07-13T13:13:34.214Z,39.91
2018-07-13T13:16:03.854Z,39.80
2018-07-13T13:18:33.722Z,40.01
2018-07-13T13:21:03.342Z,40.86
2018-07-13T13:23:33.016Z,41.57
2018-07-13T13:26:02.636Z,41.32
2018-07-13T13:28:32.290Z,40.18
2018-07-13T13:31:02.715Z,40.65
2018-07-13T13:33:32.370Z,41.76
2018-07-13T13:36:01.991Z,41.42
2018-07-13T13:38:31.606Z,39.65
2018-07-13T13:41:01.233Z,41.64
2018-07-13T13:43:30.904Z,41.30
2018-07-13T13:46:00.493Z,40.77
2018-07-13T13:48:30.154Z,39.56
2018-07-13T13:50:59.998Z,39.40
2018-07-13T13:53:29.762Z,39.31
2018-07-13T13:55:59.453Z,41.31
2018-07-13T13:58:29.074Z,40.35
2018-07-13T14:00:58.705Z,39.90
2018-07-13T14:03:28.334Z,39.57
2018-07-13T14:05:57.969Z,39.69
2018-07-13T14:08:27.603Z,39.45
2018-07-13T14:10:57.249Z,39.36
2018-07-13T14:13:26.886Z,40.86
2018-07-13T14:15:56.521Z,39.43
2018-07-13T14:18:26.146Z,38.65
2018-07-13T14:20:55.773Z,40.55
2018-07-13T14:23:25.441Z,38.51
2018-07-13T14:25:55.098Z,39.65
2018-07-13T14:28:24.771Z,40.74
2018-07-13T14:30:54.393Z,37.73
2018-07-13T14:33:24.045Z,37.52
2018-07-13T14:35:53.669Z,37.49
2018-07-13T14:38:23.303Z,36.82
2018-07-13T14:40:53.119Z,38.22
2018-07-13T14:43:22.797Z,38.65
2018-07-13T14:45:52.477Z,39.11
2018-07-13T14:48:22.138Z,38.77
2018-07-13T14:50:51.811Z,40.01
2018-07-13T14:53:21.498Z,38.67
2018-07-13T14:55:51.149Z,39.31
2018-07-13T14:58:20.795Z,38.23
2018-07-13T15:00:50.398Z,37.67
2018-07-13T15:03:20.026Z,37.11
2018-07-13T15:05:49.645Z,37.62
2018-07-13T15:08:19.282Z,37.57
2018-07-13T15:10:48.910Z,37.20
2018-07-13T15:13:18.527Z,37.33
2018-07-13T15:15:48.181Z,37.46
2018-07-13T15:18:17.837Z,35.82
2018-07-13T15:20:47.498Z,37.75
2018-07-13T15:23:17.114Z,37.34
2018-07-13T15:25:46.763Z,36.59
2018-07-13T15:28:16.441Z,38.26
2018-07-13T15:30:46.046Z,38.21
2018-07-13T15:33:15.690Z,35.47
2018-07-13T15:35:45.329Z,37.69
2018-07-13T15:38:14.926Z,36.10
2018-07-13T15:40:45.027Z,36.51
2018-07-13T15:43:14.648Z,36.45
2018-07-13T15:45:44.289Z,36.03
2018-07-13T15:48:13.890Z,36.06
2018-07-13T15:50:43.556Z,37.30
2018-07-13T15:53:13.167Z,37.13
2018-07-13T15:55:48.006Z,36.19
2018-07-13T15:58:17.649Z,36.50
2018-07-13T16:00:47.314Z,36.51
2018-07-13T16:03:16.937Z,36.91
2018-07-13T16:05:46.668Z,35.95
2018-07-13T16:08:16.262Z,36.77
2018-07-13T16:10:45.939Z,35.94
2018-07-13T16:13:15.610Z,35.22
2018-07-13T16:15:45.249Z,35.77
2018-07-13T16:18:14.942Z,36.27
2018-07-13T16:20:45.691Z,34.89
2018-07-13T16:23:15.364Z,35.86
2018-07-13T16:25:45.031Z,33.78
2018-07-13T16:28:14.658Z,35.73
2018-07-13T16:30:44.339Z,36.66
2018-07-13T16:33:13.962Z,37.34
2018-07-13T16:35:43.658Z,36.02
2018-07-13T16:38:13.374Z,36.78
2018-07-13T16:40:43.010Z,35.62
2018-07-13T16:43:12.619Z,36.67
2018-07-13T16:45:42.313Z,37.25
2018-07-13T16:48:11.949Z,35.22
2018-07-13T16:50:41.608Z,36.18
2018-07-13T16:53:11.205Z,35.29
2018-07-13T16:55:40.897Z,35.57
2018-07-13T16:58:10.562Z,35.29
2018-07-13T17:00:40.218Z,34.66
2018-07-13T17:03:09.909Z,36.21
2018-07-13T17:05:39.502Z,36.03
2018-07-13T17:08:09.114Z,37.25
2018-07-13T17:10:38.854Z,37.39
2018-07-13T17:13:08.507Z,38.30
2018-07-13T17:15:38.128Z,38.13
2018-07-13T17:18:07.738Z,39.10
2018-07-13T17:20:37.895Z,39.19
2018-07-13T17:23:07.546Z,39.03
2018-07-13T17:25:37.131Z,38.16
2018-07-13T17:28:06.829Z,39.54
2018-07-13T17:30:36.441Z,38.68
2018-07-13T17:33:06.102Z,40.69
2018-07-13T17:35:35.728Z,39.95
2018-07-13T17:38:05.460Z,41.05
2018-07-13T17:40:35.082Z,41.12
2018-07-13T17:43:04.786Z,41.11
2018-07-13T17:45:34.394Z,41.20
2018-07-13T17:48:04.097Z,40.80
2018-07-13T17:50:33.740Z,41.50
2018-07-13T17:53:03.427Z,41.96
2018-07-13T17:55:33.074Z,41.62
2018-07-13T17:58:02.774Z,41.52
2018-07-13T18:00:32.508Z,43.01
2018-07-13T18:03:02.233Z,43.03
2018-07-13T18:05:31.890Z,44.05
2018-07-13T18:08:01.900Z,43.88
2018-07-13T18:10:31.547Z,43.85
2018-07-13T18:13:01.338Z,43.66
2018-07-13T18:15:30.810Z,43.18
2018-07-13T18:18:00.457Z,44.04
2018-07-13T18:20:30.130Z,44.88
2018-07-13T18:22:59.794Z,47.12
2018-07-13T18:25:29.353Z,45.85
2018-07-13T18:27:59.048Z,45.31
2018-07-13T18:30:28.688Z,46.84
2018-07-13T18:32:58.335Z,46.79
2018-07-13T18:35:28.007Z,47.04
2018-07-13T18:37:57.673Z,46.95
2018-07-13T18:40:27.369Z,47.09
2018-07-13T18:42:57.003Z,48.21
2018-07-13T18:45:26.637Z,48.69
2018-07-13T18:47:58.714Z,48.70
2018-07-13T18:50:28.347Z,49.08
2018-07-13T18:52:58.022Z,50.33
2018-07-13T18:55:27.693Z,50.10
2018-07-13T18:57:57.346Z,50.11
2018-07-13T19:00:27.038Z,51.27
2018-07-13T19:02:56.679Z,51.05
2018-07-13T19:05:26.348Z,50.20
2018-07-13T19:07:55.990Z,50.88
2018-07-13T19:10:26.611Z,50.35
2018-07-13T19:12:56.246Z,51.94
2018-07-13T19:15:25.846Z,52.18
2018-07-13T19:17:55.718Z,51.97
2018-07-13T19:20:25.363Z,52.64
2018-07-13T19:22:55.127Z,52.80
2018-07-13T19:25:24.690Z,52.65
2018-07-13T19:27:54.389Z,51.94
2018-07-13T19:30:24.068Z,52.16
2018-07-13T19:32:53.658Z,52.93
2018-07-13T19:35:23.293Z,52.30
2018-07-13T19:37:52.936Z,52.95
2018-07-13T19:40:22.558Z,53.47
2018-07-13T19:42:52.297Z,52.84
2018-07-13T19:45:21.894Z,53.18
2018-07-13T19:47:51.515Z,53.96
2018-07-13T19:50:21.151Z,54.78
2018-07-13T19:52:50.784Z,54.43
2018-07-13T19:55:20.394Z,54.63
2018-07-13T19:57:50.050Z,53.64
2018-07-13T20:00:19.639Z,54.60
2018-07-13T20:02:49.260Z,54.60
2018-07-13T20:05:18.908Z,54.08
2018-07-13T20:07:48.541Z,54.40
2018-07-13T20:10:18.257Z,55.00
2018-07-13T20:12:47.866Z,54.55
2018-07-13T20:15:17.530Z,54.31
2018-07-13T20:17:47.154Z,54.63
2018-07-13T20:20:16.828Z,54.90
2018-07-13T20:22:46.439Z,56.03
2018-07-13T20:25:17.007Z,56.23
2018-07-13T20:27:46.610Z,56.07
2018-07-13T20:30:16.286Z,56.32
2018-07-13T20:32:45.878Z,55.63
2018-07-13T20:35:15.538Z,56.35
2018-07-13T20:37:45.199Z,59.11
2018-07-13T20:40:14.838Z,57.50
2018-07-13T20:42:45.474Z,57.18
2018-07-13T20:45:15.433Z,57.63
2018-07-13T20:47:45.084Z,55.65
2018-07-13T20:50:14.633Z,55.30
2018-07-13T20:52:44.223Z,55.33
2018-07-13T20:55:13.881Z,54.23
2018-07-13T20:57:43.470Z,56.17
2018-07-13T21:00:17.968Z,55.92
2018-07-13T21:02:47.751Z,57.95
2018-07-13T21:05:17.367Z,57.62
2018-07-13T21:07:46.996Z,58.12
2018-07-13T21:10:16.685Z,58.64
2018-07-13T21:12:46.350Z,59.06
2018-07-13T21:15:15.986Z,58.62
2018-07-13T21:17:45.602Z,58.26
2018-07-13T21:20:15.366Z,57.92
2018-07-13T21:22:44.942Z,57.96
2018-07-13T21:25:14.557Z,57.00
2018-07-13T21:27:44.246Z,58.03
2018-07-13T21:30:13.898Z,58.11
2018-07-13T21:32:44.705Z,59.15
2018-07-13T21:35:14.351Z,64.27
2018-07-13T21:37:44.023Z,63.79
2018-07-13T21:40:13.794Z,60.80
2018-07-13T21:42:43.447Z,59.15
2018-07-13T21:45:13.073Z,57.76
2018-07-13T21:47:43.090Z,58.86
2018-07-13T21:50:12.734Z,62.33
2018-07-13T21:52:42.406Z,62.97
2018-07-13T21:55:12.058Z,63.35
2018-07-13T21:57:41.699Z,63.45
2018-07-13T22:00:11.349Z,64.25
2018-07-13T22:02:40.966Z,62.86
2018-07-13T22:05:10.646Z,62.12
2018-07-13T22:07:40.361Z,59.89
2018-07-13T22:10:10.034Z,59.94
2018-07-13T22:12:39.711Z,59.78
2018-07-13T22:15:09.383Z,59.91
2018-07-13T22:17:39.070Z,61.98
2018-07-13T22:20:08.726Z,62.12
2018-07-13T22:22:38.371Z,61.36
2018-07-13T22:25:08.023Z,63.43
2018-07-13T22:27:37.683Z,65.13
2018-07-13T22:30:07.661Z,64.14
2018-07-13T22:32:37.444Z,63.10
2018-07-13T22:35:07.161Z,62.01
2018-07-13T22:37:36.812Z,60.83
2018-07-13T22:40:06.467Z,60.19
2018-07-13T22:42:36.132Z,60.28
2018-07-13T22:45:06.470Z,59.97
2018-07-13T22:47:36.090Z,60.48
2018-07-13T22:50:05.729Z,61.47
2018-07-13T22:52:35.354Z,62.67
2018-07-13T22:55:05.271Z,62.49
2018-07-13T22:57:34.905Z,61.70
2018-07-13T23:00:04.626Z,61.89
2018-07-13T23:02:34.311Z,62.15
2018-07-13T23:05:03.939Z,62.75
2018-07-13T23:07:33.610Z,62.43
2018-07-13T23:10:03.432Z,61.42
2018-07-13T23:12:33.135Z,60.84
2018-07-13T23:15:02.737Z,60.27
2018-07-13T23:17:32.375Z,60.84
2018-07-13T23:20:02.057Z,62.61
2018-07-13T23:22:31.702Z,61.95
2018-07-13T23:25:01.350Z,63.02
2018-07-13T23:27:31.005Z,63.85
2018-07-13T23:30:00.609Z,63.41
2018-07-13T23:32:30.262Z,64.33
2018-07-13T23:34:59.904Z,63.62
2018-07-13T23:37:29.541Z,61.88
2018-07-13T23:39:59.193Z,61.90
2018-07-13T23:42:28.868Z,61.86
2018-07-13T23:44:58.513Z,62.04
2018-07-13T23:47:28.134Z,62.34
2018-07-13T23:49:57.754Z,62.79
2018-07-13T23:52:27.389Z,62.95
2018-07-13T23:54:57.045Z,63.25
2018-07-13T23:57:26.645Z,63.51
2018-07-13T23:59:56.337Z,64.50
